Sea Cloud II — 9HUE6 — position and weather

sailwx.info

Track history (hours):
 
Tides and Currents Weather Stations Pressure Air Temp Water Temp Dewpoint Dewpoint Depression Visibility Wind Speed Wind Dir Waves Ship Positions

Sea Cloud II

Ship's website: http://www.seacloud.com/en/the-ships/sea-cloud-ii.html

Last reported at 2015-May-05 23:19 UTC. Time now 2015-May-06 10:27 UTC.
Position N 43°27' E 007°05'.

Length 117 m; draft 5.9 m.

Type: Passenger vessel. MMSI: 248953000.

Date/timePositionNaut miles runAvg speedWind from/ knotsBaromVisibWave heightAir tempDewpointWater temp
2015-May-05 23:19N 43°27' E 007°05'3 3.3
2015-May-05 22:33N 43°29' E 007°07'4 3.6
2015-May-05 21:33N 43°31' E 007°11'3 3.1
2015-May-05 20:33N 43°33' E 007°14'7 6.7
2015-May-05 19:33N 43°37' E 007°21'2 0.9
2015-May-05 17:05N 43°40' E 007°21'3 4.8
2015-May-05 16:33N 43°41' E 007°17'1 0.9
2015-May-05 15:23N 43°42' E 007°17'0 0.0
2015-May-05 14:29N 43°42' E 007°17'0 0.0
2015-May-05 13:29N 43°42' E 007°17'0 0.0
2015-May-05 12:23N 43°42' E 007°17'0 0.0
2015-May-05 11:29N 43°42' E 007°17'0 0.0
2015-May-05 10:29N 43°42' E 007°17'0 0.0
2015-May-05 09:17N 43°42' E 007°17'0 0.0
2015-May-05 08:29N 43°42' E 007°17'0 0.0
2015-May-05 07:23N 43°42' E 007°17'0 0.0
2015-May-05 06:29N 43°42' E 007°17'1 0.6
2015-May-05 05:33N 43°41' E 007°17'5 5.0
2015-May-05 04:32N 43°37' E 007°14'4 4.3
2015-May-05 03:33N 43°33' E 007°12'10 7.9
2015-May-05 02:15N 43°25' E 007°03'57 5.9
2015-May-04 16:33N 43°00' E 005°52'12 7.9
2015-May-04 15:06N 43°05' E 005°38'5 2.3
2015-May-04 13:07N 43°03' E 005°43'3 3.8
2015-May-04 12:15N 43°06' E 005°46'2 2.1
2015-May-04 11:32N 43°07' E 005°48'0 0.0
2015-May-04 10:29N 43°07' E 005°48'0 0.0
2015-May-04 09:32N 43°07' E 005°48'0 0.0
2015-May-04 08:26N 43°07' E 005°48'0 0.0
2015-May-04 07:11N 43°07' E 005°48'0 0.0
2015-May-04 06:29N 43°07' E 005°48'0 0.0
2015-May-04 05:23N 43°07' E 005°48'3 3.8
2015-May-04 04:33N 43°06' E 005°44'25 6.1
2015-May-04 00:27N 42°59' E 005°11'137 3.8
2015-May-02 12:03N 41°13' E 003°13'10 2.9
2015-May-02 08:29N 41°07' E 003°02'3 2.5
2015-May-02 07:20N 41°05' E 002°60'7 8.4
2015-May-02 06:31N 41°02' E 002°52'1212.4
2015-May-02 05:33N 40°55' E 002°38'1312.1
2015-May-02 04:30N 40°49' E 002°24'1212.2
2015-May-02 03:33N 40°43' E 002°11'1212.2
2015-May-02 02:33N 40°37' E 001°57'1212.6
2015-May-02 01:33N 40°31' E 001°42'1212.2
2015-May-02 00:33N 40°24' E 001°29'1312.1
2015-May-01 23:29N 40°17' E 001°14'1212.5
2015-May-01 22:33N 40°12' E 001°01'1212.3
2015-May-01 21:33N 40°06' E 000°47'6211.7
2015-May-01 16:15N 39°26' W 000°15'4 5.1
2015-May-01 15:33N 39°27' W 000°20'0 0.0
2015-May-01 14:33N 39°27' W 000°20'0 0.0
2015-May-01 13:33N 39°27' W 000°20'0 0.0
2015-May-01 12:33N 39°27' W 000°20'0 0.0
2015-May-01 11:33N 39°27' W 000°20'0 0.0
2015-May-01 10:30N 39°27' W 000°20'0 0.0
2015-May-01 09:30N 39°27' W 000°20'0 0.0
2015-May-01 08:33N 39°27' W 000°20'0 0.0
2015-May-01 07:33N 39°27' W 000°20'0 0.0
2015-May-01 06:33N 39°27' W 000°20'2 2.5
2015-May-01 05:33N 39°25' W 000°17'58 9.0
2015-Apr-30 23:09N 38°37' E 000°23'5 8.8
2015-Apr-30 22:32N 38°33' E 000°19'11 8.4
2015-Apr-30 21:17N 38°23' E 000°13'6 8.4
2015-Apr-30 20:33N 38°17' E 000°11'9 8.8
2015-Apr-30 19:31N 38°08' E 000°08'9 9.1
2015-Apr-30 18:33N 38°00' E 000°04'9 9.2
2015-Apr-30 17:33N 37°51' W 000°00'9 8.9
2015-Apr-30 16:33N 37°43' W 000°04'9 8.6
2015-Apr-30 15:30N 37°35' W 000°08'5 4.4
2015-Apr-30 14:29N 37°31' W 000°11'1 0.6
2015-Apr-30 13:33N 37°30' W 000°11'1 1.5
2015-Apr-30 12:33N 37°29' W 000°12'2 1.6
2015-Apr-30 11:32N 37°28' W 000°13'2 2.0
2015-Apr-30 10:33N 37°26' W 000°14'1 1.4
2015-Apr-30 09:32N 37°25' W 000°15'0 0.5
2015-Apr-30 08:33N 37°25' W 000°16'1 0.7
2015-Apr-30 07:33N 37°24' W 000°16'6 6.0
2015-Apr-30 06:33N 37°21' W 000°23'2411.9
2015-Apr-30 04:33N 37°09' W 000°49'1312.4
2015-Apr-30 03:32N 37°02' W 001°02'8311.8
2015-Apr-29 20:31N 36°23' W 002°32'1312.6
2015-Apr-29 19:31N 36°24' W 002°48'123 5.4
2015-Apr-28 20:33N 36°01' W 005°18'221 5.0
2015-Apr-27 00:33N 37°39' W 009°26'1211.9
2015-Apr-26 23:33N 37°50' W 009°23'1211.5
2015-Apr-26 22:33N 38°02' W 009°20'1111.5
2015-Apr-26 21:33N 38°13' W 009°21'1211.7
2015-Apr-26 20:33N 38°25' W 009°22'1111.5
2015-Apr-26 19:33N 38°36' W 009°23'9 9.1
2015-Apr-26 18:33N 38°41' W 009°14'5 4.8
2015-Apr-26 17:30N 38°43' W 009°07'0 0.0
2015-Apr-26 16:30N 38°43' W 009°07'0 0.0
2015-Apr-26 15:33N 38°43' W 009°07'0 0.0
2015-Apr-26 14:30N 38°43' W 009°07'0 0.0
2015-Apr-26 13:30N 38°43' W 009°07'0 0.0
2015-Apr-26 12:33N 38°43' W 009°07'0 0.0
2015-Apr-26 11:33N 38°43' W 009°07'0 0.0
2015-Apr-26 10:30N 38°43' W 009°07'0 0.0
2015-Apr-26 09:30N 38°43' W 009°07'0 0.0
2015-Apr-26 08:21N 38°43' W 009°07'0 0.0
2015-Apr-26 07:27N 38°43' W 009°07'0 0.0
2015-Apr-26 06:30N 38°43' W 009°07'0 0.0
2015-Apr-26 05:30N 38°43' W 009°07'0 0.0
2015-Apr-26 04:30N 38°43' W 009°07'0 0.0
2015-Apr-26 03:27N 38°43' W 009°07'0 0.0
2015-Apr-26 02:12N 38°43' W 009°07'0 0.0
2015-Apr-26 01:33N 38°43' W 009°07'0 0.0
2015-Apr-26 00:33N 38°43' W 009°07'0 0.0
2015-Apr-25 23:33N 38°43' W 009°07'  
Track history (hours):
 
Tides and Currents Weather Stations Pressure Air Temp Water Temp Dewpoint Dewpoint Depression Visibility Wind Speed Wind Dir Waves Ship Positions

Sea Cloud II

Ship's website: http://www.seacloud.com/en/the-ships/sea-cloud-ii.html

Last reported at 2015-May-05 23:19 UTC. Time now 2015-May-06 10:27 UTC.
Position N 43°27' E 007°05'.

Length 117 m; draft 5.9 m.

Type: Passenger vessel. MMSI: 248953000.

Date/timePositionNaut miles runAvg speedWind from/ knotsBaromVisibWave heightAir tempDewpointWater temp
2015-May-05 23:19N 43°27' E 007°05'3 3.3
2015-May-05 22:33N 43°29' E 007°07'4 3.6
2015-May-05 21:33N 43°31' E 007°11'3 3.1
2015-May-05 20:33N 43°33' E 007°14'7 6.7
2015-May-05 19:33N 43°37' E 007°21'2 0.9
2015-May-05 17:05N 43°40' E 007°21'3 4.8
2015-May-05 16:33N 43°41' E 007°17'1 0.9
2015-May-05 15:23N 43°42' E 007°17'0 0.0
2015-May-05 14:29N 43°42' E 007°17'0 0.0
2015-May-05 13:29N 43°42' E 007°17'0 0.0
2015-May-05 12:23N 43°42' E 007°17'0 0.0
2015-May-05 11:29N 43°42' E 007°17'0 0.0
2015-May-05 10:29N 43°42' E 007°17'0 0.0
2015-May-05 09:17N 43°42' E 007°17'0 0.0
2015-May-05 08:29N 43°42' E 007°17'0 0.0
2015-May-05 07:23N 43°42' E 007°17'0 0.0
2015-May-05 06:29N 43°42' E 007°17'1 0.6
2015-May-05 05:33N 43°41' E 007°17'5 5.0
2015-May-05 04:32N 43°37' E 007°14'4 4.3
2015-May-05 03:33N 43°33' E 007°12'10 7.9
2015-May-05 02:15N 43°25' E 007°03'57 5.9
2015-May-04 16:33N 43°00' E 005°52'12 7.9
2015-May-04 15:06N 43°05' E 005°38'5 2.3
2015-May-04 13:07N 43°03' E 005°43'3 3.8
2015-May-04 12:15N 43°06' E 005°46'2 2.1
2015-May-04 11:32N 43°07' E 005°48'0 0.0
2015-May-04 10:29N 43°07' E 005°48'0 0.0
2015-May-04 09:32N 43°07' E 005°48'0 0.0
2015-May-04 08:26N 43°07' E 005°48'0 0.0
2015-May-04 07:11N 43°07' E 005°48'0 0.0
2015-May-04 06:29N 43°07' E 005°48'0 0.0
2015-May-04 05:23N 43°07' E 005°48'3 3.8
2015-May-04 04:33N 43°06' E 005°44'25 6.1
2015-May-04 00:27N 42°59' E 005°11'137 3.8
2015-May-02 12:03N 41°13' E 003°13'10 2.9
2015-May-02 08:29N 41°07' E 003°02'3 2.5
2015-May-02 07:20N 41°05' E 002°60'7 8.4
2015-May-02 06:31N 41°02' E 002°52'1212.4
2015-May-02 05:33N 40°55' E 002°38'1312.1
2015-May-02 04:30N 40°49' E 002°24'1212.2
2015-May-02 03:33N 40°43' E 002°11'1212.2
2015-May-02 02:33N 40°37' E 001°57'1212.6
2015-May-02 01:33N 40°31' E 001°42'1212.2
2015-May-02 00:33N 40°24' E 001°29'1312.1
2015-May-01 23:29N 40°17' E 001°14'1212.5
2015-May-01 22:33N 40°12' E 001°01'1212.3
2015-May-01 21:33N 40°06' E 000°47'6211.7
2015-May-01 16:15N 39°26' W 000°15'4 5.1
2015-May-01 15:33N 39°27' W 000°20'0 0.0
2015-May-01 14:33N 39°27' W 000°20'0 0.0
2015-May-01 13:33N 39°27' W 000°20'0 0.0
2015-May-01 12:33N 39°27' W 000°20'0 0.0
2015-May-01 11:33N 39°27' W 000°20'0 0.0
2015-May-01 10:30N 39°27' W 000°20'0 0.0
2015-May-01 09:30N 39°27' W 000°20'0 0.0
2015-May-01 08:33N 39°27' W 000°20'0 0.0
2015-May-01 07:33N 39°27' W 000°20'0 0.0
2015-May-01 06:33N 39°27' W 000°20'2 2.5
2015-May-01 05:33N 39°25' W 000°17'58 9.0
2015-Apr-30 23:09N 38°37' E 000°23'5 8.8
2015-Apr-30 22:32N 38°33' E 000°19'11 8.4
2015-Apr-30 21:17N 38°23' E 000°13'6 8.4
2015-Apr-30 20:33N 38°17' E 000°11'9 8.8
2015-Apr-30 19:31N 38°08' E 000°08'9 9.1
2015-Apr-30 18:33N 38°00' E 000°04'9 9.2
2015-Apr-30 17:33N 37°51' W 000°00'9 8.9
2015-Apr-30 16:33N 37°43' W 000°04'9 8.6
2015-Apr-30 15:30N 37°35' W 000°08'5 4.4
2015-Apr-30 14:29N 37°31' W 000°11'1 0.6
2015-Apr-30 13:33N 37°30' W 000°11'1 1.5
2015-Apr-30 12:33N 37°29' W 000°12'2 1.6
2015-Apr-30 11:32N 37°28' W 000°13'2 2.0
2015-Apr-30 10:33N 37°26' W 000°14'1 1.4
2015-Apr-30 09:32N 37°25' W 000°15'0 0.5
2015-Apr-30 08:33N 37°25' W 000°16'1 0.7
2015-Apr-30 07:33N 37°24' W 000°16'6 6.0
2015-Apr-30 06:33N 37°21' W 000°23'2411.9
2015-Apr-30 04:33N 37°09' W 000°49'1312.4
2015-Apr-30 03:32N 37°02' W 001°02'8311.8
2015-Apr-29 20:31N 36°23' W 002°32'1312.6
2015-Apr-29 19:31N 36°24' W 002°48'123 5.4
2015-Apr-28 20:33N 36°01' W 005°18'221 5.0
2015-Apr-27 00:33N 37°39' W 009°26'1211.9
2015-Apr-26 23:33N 37°50' W 009°23'1211.5
2015-Apr-26 22:33N 38°02' W 009°20'1111.5
2015-Apr-26 21:33N 38°13' W 009°21'1211.7
2015-Apr-26 20:33N 38°25' W 009°22'1111.5
2015-Apr-26 19:33N 38°36' W 009°23'9 9.1
2015-Apr-26 18:33N 38°41' W 009°14'5 4.8
2015-Apr-26 17:30N 38°43' W 009°07'0 0.0
2015-Apr-26 16:30N 38°43' W 009°07'0 0.0
2015-Apr-26 15:33N 38°43' W 009°07'0 0.0
2015-Apr-26 14:30N 38°43' W 009°07'0 0.0
2015-Apr-26 13:30N 38°43' W 009°07'0 0.0
2015-Apr-26 12:33N 38°43' W 009°07'0 0.0
2015-Apr-26 11:33N 38°43' W 009°07'0 0.0
2015-Apr-26 10:30N 38°43' W 009°07'0 0.0
2015-Apr-26 09:30N 38°43' W 009°07'0 0.0
2015-Apr-26 08:21N 38°43' W 009°07'0 0.0
2015-Apr-26 07:27N 38°43' W 009°07'0 0.0
2015-Apr-26 06:30N 38°43' W 009°07'0 0.0
2015-Apr-26 05:30N 38°43' W 009°07'0 0.0
2015-Apr-26 04:30N 38°43' W 009°07'0 0.0
2015-Apr-26 03:27N 38°43' W 009°07'0 0.0
2015-Apr-26 02:12N 38°43' W 009°07'0 0.0
2015-Apr-26 01:33N 38°43' W 009°07'0 0.0
2015-Apr-26 00:33N 38°43' W 009°07'0 0.0
2015-Apr-25 23:33N 38°43' W 009°07'  

Dump ship's entire track history